KFSO

Franklin County State Airport

Highgate, Vermont, USA
METAR KFSO 210355Z AUTO 00000KT 10SM CLR 17/16 A3012 RMK AO2 T01710157
Observed Flight Rules
Aug-21 @ 03:55 UTC (16 minutes ago) Visual Flight Rules
Visibility Clouds
10 miles
  • Clear skies
Temperatures Readings
Current 17°C / 63°F
Dewpoint 16°C / 61°F
Humidity 94%
Altimeter 30.12" Hg
Pressure 1020 hPa
Elevation 70
METAR KFSO 210355Z AUTO 00000KT 10SM CLR 17/16 A3012 RMK AO2 T01710157
Observed Flight Rules
Aug-21 @ 03:55 UTC
(16 minutes ago)
VFR
Clouds
  • Clear skies
Temperature Dewpoint
17°C / 63°F 16°C / 61°F
Humidity Altimeter Pressure
94% 30.12" Hg 1020 hPa